Time;durP1;ratioP1;P1;durP2;ratioP2;P2;SDS_P1;SDS_P2;PMS_P1;PMS_P2;Temp;Humidity;BMP_temperature;BMP_pressure;BME280_temperature;BME280_humidity;BME280_pressure;Samples;Min_cycle;Max_cycle;Signal;HPM_P1;HPM_P2
2023/03/18 00:01:24;;;;;;;8.48;4.10;;;11.90;98.70;;;;;;4944592;28;20469;-47
2023/03/18 00:03:50;;;;;;;9.60;4.30;;;11.90;98.90;;;;;;4946381;28;20044;-43
2023/03/18 00:06:18;;;;;;;7.30;4.15;;;11.90;99.20;;;;;;4942881;28;20051;-44
2023/03/18 00:08:46;;;;;;;10.43;4.40;;;11.80;99.00;;;;;;4946840;28;20756;-41
2023/03/18 00:11:13;;;;;;;6.20;4.28;;;11.80;98.70;;;;;;4946680;28;20103;-44
2023/03/18 00:13:40;;;;;;;8.48;4.43;;;11.80;99.20;;;;;;4948751;28;20421;-42
2023/03/18 00:16:09;;;;;;;10.32;4.90;;;11.70;99.30;;;;;;4951591;28;20170;-44
2023/03/18 00:18:35;;;;;;;7.97;4.82;;;11.70;99.40;;;;;;4949063;28;20078;-43
2023/03/18 00:21:01;;;;;;;7.90;4.82;;;11.70;99.30;;;;;;4947640;28;20444;-46
2023/03/18 00:23:27;;;;;;;10.88;4.85;;;11.70;99.80;;;;;;4942316;28;20128;-43
2023/03/18 00:25:56;;;;;;;11.40;4.80;;;11.70;99.50;;;;;;4949572;28;20520;-43
2023/03/18 00:28:24;;;;;;;10.57;4.97;;;11.70;99.60;;;;;;4949525;28;20082;-43
2023/03/18 00:30:50;;;;;;;9.18;4.47;;;11.70;99.90;;;;;;4951934;28;20410;-45
2023/03/18 00:33:16;;;;;;;9.50;5.03;;;11.60;99.90;;;;;;4941392;29;20490;-41
2023/03/18 00:35:44;;;;;;;9.43;5.55;;;11.60;99.70;;;;;;4942636;28;20729;-42
2023/03/18 00:38:14;;;;;;;11.73;6.15;;;11.60;99.90;;;;;;4951877;29;20059;-43
2023/03/18 00:40:52;;;;;;;10.70;5.70;;;11.60;99.90;;;;;;4948998;28;20497;-44
2023/03/18 00:43:21;;;;;;;10.82;5.85;;;11.50;99.90;;;;;;4945836;28;20121;-42
2023/03/18 00:45:49;;;;;;;8.32;5.13;;;11.40;99.90;;;;;;4942720;28;20453;-43
2023/03/18 00:48:16;;;;;;;8.43;4.70;;;11.30;99.90;;;;;;4941629;29;20138;-42
2023/03/18 00:50:43;;;;;;;12.35;5.72;;;11.20;99.90;;;;;;4948215;28;20050;-44
2023/03/18 00:53:10;;;;;;;8.23;4.95;;;11.20;99.90;;;;;;4946711;28;20091;-43
2023/03/18 00:55:36;;;;;;;9.15;5.60;;;11.10;99.90;;;;;;4944498;28;20056;-43
2023/03/18 00:58:02;;;;;;;8.40;5.15;;;11.10;99.90;;;;;;4950144;28;20062;-46
2023/03/18 01:00:28;;;;;;;9.85;6.30;;;11.10;99.90;;;;;;4935489;29;20051;-44
2023/03/18 01:02:55;;;;;;;10.85;6.15;;;11.00;99.90;;;;;;4941610;28;20063;-44
2023/03/18 01:05:21;;;;;;;9.07;5.88;;;11.00;99.90;;;;;;4942958;28;20066;-44
2023/03/18 01:07:48;;;;;;;8.30;5.57;;;11.00;99.90;;;;;;4948248;28;20142;-42
2023/03/18 01:10:14;;;;;;;13.43;6.43;;;10.90;99.90;;;;;;4945212;28;20107;-43
2023/03/18 01:12:42;;;;;;;11.63;6.43;;;10.90;99.90;;;;;;4943352;28;20494;-43
2023/03/18 01:15:13;;;;;;;10.90;5.95;;;10.90;99.90;;;;;;4947470;28;20404;-44
2023/03/18 01:17:39;;;;;;;14.55;8.07;;;10.90;99.90;;;;;;4946874;28;20061;-42
2023/03/18 01:20:05;;;;;;;13.70;7.35;;;10.80;99.90;;;;;;4946885;28;20146;-45
2023/03/18 01:22:31;;;;;;;11.05;7.35;;;10.80;99.90;;;;;;4948781;28;20517;-45
2023/03/18 01:24:57;;;;;;;13.90;7.60;;;10.80;99.90;;;;;;4939609;28;20548;-43
2023/03/18 01:27:23;;;;;;;12.48;7.80;;;10.70;99.90;;;;;;4939333;28;20087;-43
2023/03/18 01:29:49;;;;;;;11.52;7.10;;;10.70;99.90;;;;;;4947526;28;20453;-46
2023/03/18 01:32:15;;;;;;;13.70;7.93;;;10.60;99.90;;;;;;4943490;28;20056;-42
2023/03/18 01:34:41;;;;;;;12.75;8.23;;;10.50;99.90;;;;;;4948978;28;20057;-46
2023/03/18 01:37:07;;;;;;;13.48;7.93;;;10.50;99.90;;;;;;4945944;28;20150;-41
2023/03/18 01:39:33;;;;;;;12.82;8.32;;;10.40;99.90;;;;;;4951806;28;20047;-43
2023/03/18 01:41:59;;;;;;;13.25;8.60;;;10.40;99.90;;;;;;4947838;28;20078;-43
2023/03/18 01:44:26;;;;;;;11.68;7.65;;;10.30;99.90;;;;;;4950458;28;20051;-42
2023/03/18 01:46:52;;;;;;;11.02;6.75;;;10.30;99.90;;;;;;4946662;28;20461;-42
2023/03/18 01:49:30;;;;;;;15.73;9.40;;;10.30;99.90;;;;;;4949534;28;20047;-43
2023/03/18 01:52:18;;;;;;;14.60;9.10;;;10.30;99.90;;;;;;4948571;28;20055;-43
2023/03/18 01:55:06;;;;;;;14.27;8.18;;;10.30;99.90;;;;;;4950129;28;20059;-43
2023/03/18 01:57:33;;;;;;;13.85;8.82;;;10.20;99.90;;;;;;4943183;28;20059;-47
2023/03/18 01:59:59;;;;;;;13.18;8.40;;;10.20;99.90;;;;;;4926143;29;20051;-47
2023/03/18 02:02:25;;;;;;;14.65;9.60;;;10.10;99.90;;;;;;4944130;28;20131;-41
2023/03/18 02:04:53;;;;;;;13.32;8.70;;;10.10;99.90;;;;;;4939465;28;20075;-42
2023/03/18 02:07:32;;;;;;;12.75;7.65;;;10.10;99.90;;;;;;4941054;28;20047;-42
2023/03/18 02:10:01;;;;;;;16.45;9.48;;;10.00;99.90;;;;;;4948679;28;20053;-45
2023/03/18 02:12:35;;;;;;;13.93;8.52;;;10.10;99.90;;;;;;4941658;28;20083;-35
2023/03/18 02:15:06;;;;;;;14.27;9.10;;;10.10;99.90;;;;;;4944797;28;20055;-36
2023/03/18 02:17:35;;;;;;;13.70;9.00;;;10.00;99.90;;;;;;4944180;28;20059;-36
2023/03/18 02:20:26;;;;;;;12.68;8.02;;;10.10;99.90;;;;;;4945839;28;20122;-36
2023/03/18 02:23:16;;;;;;;13.73;7.70;;;10.00;99.90;;;;;;4944724;28;20057;-36
2023/03/18 02:25:58;;;;;;;13.23;8.18;;;10.00;99.90;;;;;;4943189;28;20138;-36
2023/03/18 02:28:27;;;;;;;11.38;8.27;;;10.00;99.90;;;;;;4948261;28;20113;-36
2023/03/18 02:30:58;;;;;;;18.45;8.50;;;10.00;99.90;;;;;;4943296;28;20418;-36
2023/03/18 02:33:29;;;;;;;13.77;7.32;;;9.90;99.90;;;;;;4946368;28;20062;-37
2023/03/18 02:35:59;;;;;;;14.27;8.10;;;10.00;99.90;;;;;;4943735;28;20565;-36
2023/03/18 02:38:25;;;;;;;12.65;7.25;;;9.90;99.90;;;;;;4940514;28;20078;-36
2023/03/18 02:40:52;;;;;;;12.45;7.30;;;9.90;99.90;;;;;;4941794;28;20051;-36
2023/03/18 02:43:31;;;;;;;14.52;8.38;;;9.90;99.90;;;;;;4943695;28;20506;-36
2023/03/18 02:46:13;;;;;;;10.82;6.55;;;9.90;99.90;;;;;;4942810;28;20067;-35
2023/03/18 02:48:42;;;;;;;12.68;7.97;;;9.90;99.90;;;;;;4947842;28;20517;-36
2023/03/18 02:51:09;;;;;;;13.63;8.93;;;9.90;99.90;;;;;;4944642;28;20082;-38
2023/03/18 02:53:36;;;;;;;15.27;9.10;;;9.80;99.90;;;;;;4940112;28;20135;-35
2023/03/18 02:56:03;;;;;;;13.15;8.75;;;9.80;99.90;;;;;;4948766;28;20062;-36
2023/03/18 02:58:29;;;;;;;13.77;8.90;;;9.80;99.90;;;;;;4941322;28;20521;-37
2023/03/18 03:00:56;;;;;;;12.57;7.28;;;9.80;99.90;;;;;;4947254;28;20100;-39
2023/03/18 03:03:22;;;;;;;15.02;9.05;;;9.80;99.90;;;;;;4950064;28;20489;-35
2023/03/18 03:05:48;;;;;;;15.45;9.60;;;9.80;99.90;;;;;;4948165;28;20058;-36
2023/03/18 03:08:14;;;;;;;15.75;9.80;;;9.80;99.90;;;;;;4946369;28;20412;-36
2023/03/18 03:10:40;;;;;;;18.63;11.05;;;9.70;99.90;;;;;;4949487;28;20071;-36
2023/03/18 03:13:08;;;;;;;15.65;10.20;;;9.70;99.90;;;;;;4937854;28;20059;-36
2023/03/18 03:15:35;;;;;;;12.70;8.15;;;9.80;99.90;;;;;;4949807;28;20130;-36
2023/03/18 03:18:02;;;;;;;15.55;10.05;;;9.80;99.90;;;;;;4943029;28;20506;-36
2023/03/18 03:20:32;;;;;;;17.30;11.55;;;9.80;99.90;;;;;;4949448;28;20047;-36
2023/03/18 03:22:58;;;;;;;16.85;10.35;;;9.70;99.90;;;;;;4938847;28;20071;-45
2023/03/18 03:25:25;;;;;;;18.95;11.23;;;9.60;99.90;;;;;;4939760;29;20386;-36
2023/03/18 03:27:52;;;;;;;17.88;11.20;;;9.60;99.90;;;;;;4946717;28;20497;-36
2023/03/18 03:30:18;;;;;;;21.45;11.38;;;9.60;99.90;;;;;;4938249;29;20054;-36
2023/03/18 03:32:44;;;;;;;15.70;9.48;;;9.60;99.90;;;;;;4946727;28;20055;-36
2023/03/18 03:35:15;;;;;;;17.63;10.43;;;9.60;99.90;;;;;;4937326;28;20429;-35
2023/03/18 03:37:41;;;;;;;17.85;10.25;;;9.70;99.90;;;;;;4950099;28;20429;-36
2023/03/18 03:40:08;;;;;;;17.88;10.68;;;9.70;99.90;;;;;;4948323;28;20051;-36
2023/03/18 03:42:34;;;;;;;15.13;10.55;;;9.70;99.90;;;;;;4948237;28;20070;-35
2023/03/18 03:45:00;;;;;;;15.00;9.25;;;9.80;99.90;;;;;;4946026;28;20055;-35
2023/03/18 03:47:26;;;;;;;14.88;9.82;;;9.70;99.90;;;;;;4945246;28;20058;-36
2023/03/18 03:49:52;;;;;;;12.75;8.38;;;9.80;99.90;;;;;;4947766;28;20083;-36
2023/03/18 03:52:18;;;;;;;14.80;9.05;;;9.80;99.90;;;;;;4951373;28;20047;-36
2023/03/18 03:54:45;;;;;;;15.13;8.25;;;9.80;99.90;;;;;;4950877;28;20270;-36
2023/03/18 03:57:10;;;;;;;14.57;8.80;;;9.80;99.90;;;;;;4940536;29;20063;-36
2023/03/18 03:59:36;;;;;;;12.85;8.43;;;9.80;99.90;;;;;;4952581;28;20061;-35
2023/03/18 04:02:02;;;;;;;15.38;9.65;;;9.80;99.90;;;;;;4945481;29;20304;-35
2023/03/18 04:04:28;;;;;;;17.17;9.60;;;9.80;99.90;;;;;;4949649;28;20057;-35
2023/03/18 04:06:54;;;;;;;15.43;9.50;;;9.80;99.90;;;;;;4943597;28;20060;-36
2023/03/18 04:09:20;;;;;;;13.77;8.15;;;9.80;99.90;;;;;;4953171;28;20425;-35
2023/03/18 04:11:46;;;;;;;13.95;9.10;;;9.80;99.90;;;;;;4951714;28;20047;-35
2023/03/18 04:14:12;;;;;;;12.68;8.38;;;9.80;99.90;;;;;;4948528;28;20077;-35
2023/03/18 04:16:38;;;;;;;13.75;8.75;;;9.80;99.90;;;;;;4950377;28;20039;-36
2023/03/18 04:19:06;;;;;;;15.43;9.82;;;9.80;99.90;;;;;;4951838;28;20053;-35
2023/03/18 04:21:32;;;;;;;11.13;7.93;;;9.70;99.90;;;;;;4952876;28;20489;-37
2023/03/18 04:23:58;;;;;;;11.00;8.27;;;9.70;99.90;;;;;;4949615;28;20058;-36
2023/03/18 04:26:24;;;;;;;15.80;9.20;;;9.70;99.90;;;;;;4951768;28;20162;-36
2023/03/18 04:28:50;;;;;;;12.55;8.98;;;9.70;99.90;;;;;;4947408;28;20059;-38
2023/03/18 04:31:16;;;;;;;15.93;10.07;;;9.70;99.90;;;;;;4949376;28;20055;-36
2023/03/18 04:33:43;;;;;;;15.48;9.93;;;9.70;99.90;;;;;;4950970;28;20532;-35
2023/03/18 04:36:09;;;;;;;15.10;9.43;;;9.70;99.90;;;;;;4950850;28;20046;-35
2023/03/18 04:38:35;;;;;;;16.58;9.32;;;9.70;99.90;;;;;;4950977;28;20134;-35
2023/03/18 04:41:01;;;;;;;12.73;7.57;;;9.60;99.90;;;;;;4951802;28;20063;-36
2023/03/18 04:43:27;;;;;;;16.20;10.27;;;9.60;99.90;;;;;;4950369;28;20146;-36
2023/03/18 04:45:53;;;;;;;15.98;11.07;;;9.60;99.90;;;;;;4953213;28;20051;-36
2023/03/18 04:48:18;;;;;;;14.23;9.73;;;9.60;99.90;;;;;;4950371;28;20055;-35
2023/03/18 04:50:44;;;;;;;18.92;9.77;;;9.60;99.90;;;;;;4951261;29;20055;-35
2023/03/18 04:53:10;;;;;;;15.57;10.27;;;9.60;99.90;;;;;;4950528;28;20071;-36
2023/03/18 04:55:36;;;;;;;14.48;9.32;;;9.60;99.90;;;;;;4952832;28;20079;-35
2023/03/18 04:58:02;;;;;;;15.13;9.30;;;9.60;99.90;;;;;;4951117;28;20051;-36
2023/03/18 05:00:28;;;;;;;13.82;8.77;;;9.60;99.90;;;;;;4947983;28;20055;-35
2023/03/18 05:02:53;;;;;;;14.75;10.30;;;9.60;99.90;;;;;;4947788;28;20055;-36
2023/03/18 05:05:20;;;;;;;15.75;10.40;;;9.60;99.90;;;;;;4948534;28;20066;-36
2023/03/18 05:07:45;;;;;;;15.88;9.63;;;9.60;99.90;;;;;;4950273;28;20058;-36
2023/03/18 05:10:11;;;;;;;12.40;7.82;;;9.60;99.90;;;;;;4948211;29;20425;-35
2023/03/18 05:12:37;;;;;;;10.68;6.47;;;9.70;99.90;;;;;;4941068;29;20063;-36
2023/03/18 05:15:04;;;;;;;15.68;7.85;;;9.70;99.90;;;;;;4950408;28;20043;-35
2023/03/18 05:17:30;;;;;;;14.35;8.70;;;9.70;99.90;;;;;;4950128;28;20066;-36
2023/03/18 05:19:56;;;;;;;17.02;9.68;;;9.70;99.90;;;;;;4951687;28;20090;-36
2023/03/18 05:22:22;;;;;;;14.45;8.90;;;9.80;99.90;;;;;;4946409;28;20912;-37
2023/03/18 05:24:48;;;;;;;13.88;8.98;;;9.70;99.90;;;;;;4946479;28;20055;-36
2023/03/18 05:27:16;;;;;;;18.60;9.20;;;9.80;99.90;;;;;;4946590;28;20074;-36
2023/03/18 05:29:42;;;;;;;14.32;9.25;;;9.80;99.90;;;;;;4944662;28;20493;-36
2023/03/18 05:32:09;;;;;;;18.00;9.93;;;9.80;99.90;;;;;;4947405;28;20146;-37
2023/03/18 05:34:37;;;;;;;15.35;8.95;;;9.80;99.90;;;;;;4950999;28;20130;-35
2023/03/18 05:37:05;;;;;;;13.68;8.40;;;9.80;99.90;;;;;;4950894;28;20130;-35
2023/03/18 05:39:31;;;;;;;16.70;9.20;;;9.90;99.90;;;;;;4950037;28;20118;-43
2023/03/18 05:41:58;;;;;;;18.23;9.52;;;9.90;99.90;;;;;;4945701;28;20402;-42
2023/03/18 05:44:24;;;;;;;12.57;7.93;;;9.90;99.90;;;;;;4948086;28;20471;-44
2023/03/18 05:46:51;;;;;;;15.60;8.93;;;9.90;99.90;;;;;;4944735;28;20506;-42
2023/03/18 05:49:20;;;;;;;14.55;9.18;;;9.90;99.90;;;;;;4939782;28;20137;-53
2023/03/18 05:51:46;;;;;;;14.55;8.63;;;9.90;99.90;;;;;;4948265;28;20058;-44
2023/03/18 05:54:13;;;;;;;17.15;8.75;;;9.90;99.90;;;;;;4948974;28;20047;-44
2023/03/18 05:56:38;;;;;;;16.20;9.35;;;9.90;99.90;;;;;;4937933;28;20462;-45
2023/03/18 05:59:05;;;;;;;13.93;8.15;;;9.90;99.90;;;;;;4936313;29;20091;-43
2023/03/18 06:01:32;;;;;;;10.80;7.20;;;9.90;99.90;;;;;;4946238;28;20499;-44
2023/03/18 06:03:59;;;;;;;15.63;7.57;;;9.90;99.90;;;;;;4942205;28;20087;-43
2023/03/18 06:06:25;;;;;;;12.68;7.30;;;9.90;99.90;;;;;;4947450;28;20502;-42
2023/03/18 06:08:52;;;;;;;14.77;8.30;;;9.90;99.90;;;;;;4948549;28;20516;-41
2023/03/18 06:11:18;;;;;;;17.05;8.95;;;10.00;99.90;;;;;;4945411;28;20062;-42
2023/03/18 06:13:44;;;;;;;12.95;7.90;;;10.00;99.90;;;;;;4945260;28;20409;-35
2023/03/18 06:16:10;;;;;;;11.25;7.38;;;10.00;99.90;;;;;;4946376;28;20062;-36
2023/03/18 06:18:36;;;;;;;10.65;6.72;;;10.00;99.90;;;;;;4940282;28;20070;-35
2023/03/18 06:21:03;;;;;;;13.88;8.50;;;10.00;99.90;;;;;;4950904;28;20489;-37
2023/03/18 06:23:29;;;;;;;14.15;8.18;;;10.00;99.90;;;;;;4949100;28;20150;-36
2023/03/18 06:25:55;;;;;;;10.00;6.55;;;10.00;99.90;;;;;;4949761;28;20062;-36
2023/03/18 06:28:20;;;;;;;11.38;6.90;;;10.00;99.90;;;;;;4940446;28;20094;-38
2023/03/18 06:30:46;;;;;;;15.68;7.55;;;10.00;99.90;;;;;;4947076;28;20079;-37
2023/03/18 06:33:12;;;;;;;11.85;6.47;;;10.10;99.90;;;;;;4948123;28;20058;-36
2023/03/18 06:35:38;;;;;;;12.82;7.80;;;10.10;99.90;;;;;;4940150;28;20110;-38
2023/03/18 06:38:04;;;;;;;15.80;6.97;;;10.00;99.90;;;;;;4945597;29;20059;-36
2023/03/18 06:40:30;;;;;;;11.15;6.70;;;10.10;99.90;;;;;;4950665;28;20069;-37
2023/03/18 06:42:56;;;;;;;11.20;7.68;;;10.00;99.90;;;;;;4945070;28;20047;-36
2023/03/18 06:45:21;;;;;;;13.00;7.70;;;10.00;99.90;;;;;;4940642;28;20420;-38
2023/03/18 06:47:48;;;;;;;12.18;6.68;;;10.00;99.90;;;;;;4950956;28;20129;-37
2023/03/18 06:50:14;;;;;;;12.55;7.28;;;10.00;99.90;;;;;;4948387;28;20174;-36
2023/03/18 06:52:40;;;;;;;15.23;8.35;;;10.00;99.90;;;;;;4937332;28;20059;-36
2023/03/18 06:55:06;;;;;;;16.23;8.63;;;9.90;99.90;;;;;;4948546;28;20050;-37
2023/03/18 06:57:33;;;;;;;15.82;8.23;;;9.90;99.90;;;;;;4939116;28;20093;-37
2023/03/18 06:59:59;;;;;;;14.70;9.68;;;9.90;99.90;;;;;;4947147;28;20055;-37
2023/03/18 07:02:26;;;;;;;15.57;8.48;;;9.90;99.90;;;;;;4946082;28;20074;-36
2023/03/18 07:04:52;;;;;;;14.65;7.82;;;9.90;99.90;;;;;;4949265;28;20074;-38
2023/03/18 07:07:18;;;;;;;15.38;7.72;;;9.90;99.90;;;;;;4949279;28;20079;-37
2023/03/18 07:09:44;;;;;;;15.85;9.35;;;9.90;99.90;;;;;;4944578;28;20051;-38
2023/03/18 07:12:12;;;;;;;17.38;8.88;;;9.90;99.90;;;;;;4934448;28;20062;-37
2023/03/18 07:14:39;;;;;;;15.40;9.18;;;9.90;99.90;;;;;;4941714;28;20106;-37
2023/03/18 07:17:05;;;;;;;13.65;8.82;;;9.90;99.90;;;;;;4942783;28;20063;-37
2023/03/18 07:19:32;;;;;;;17.52;8.35;;;9.90;99.90;;;;;;4938703;28;20067;-37
2023/03/18 07:21:58;;;;;;;16.30;7.85;;;9.90;99.90;;;;;;4948593;28;20059;-37
2023/03/18 07:24:25;;;;;;;14.45;8.35;;;9.90;99.90;;;;;;4945265;28;20426;-37
2023/03/18 07:26:51;;;;;;;14.82;7.85;;;9.90;99.90;;;;;;4945424;29;20047;-38
2023/03/18 07:29:17;;;;;;;12.43;8.55;;;10.00;99.90;;;;;;4941346;28;20148;-38
2023/03/18 07:31:43;;;;;;;17.13;9.80;;;10.10;99.90;;;;;;4946366;29;20138;-50
2023/03/18 07:34:10;;;;;;;13.90;8.00;;;10.10;99.90;;;;;;4945768;28;20191;-38
2023/03/18 07:36:38;;;;;;;14.95;8.25;;;10.10;99.90;;;;;;4946351;28;20457;-37
2023/03/18 07:39:05;;;;;;;13.02;8.15;;;10.20;99.90;;;;;;4949319;28;20054;-47
2023/03/18 07:41:31;;;;;;;17.50;9.93;;;10.20;99.90;;;;;;4944409;28;20098;-49
2023/03/18 07:43:57;;;;;;;16.75;10.68;;;10.20;99.90;;;;;;4943178;28;20059;-51
2023/03/18 07:46:23;;;;;;;21.40;9.35;;;10.30;99.90;;;;;;4941097;28;20062;-47
2023/03/18 07:48:49;;;;;;;16.27;9.13;;;10.30;99.90;;;;;;4938586;28;20424;-44
2023/03/18 07:51:15;;;;;;;15.88;8.93;;;10.40;99.90;;;;;;4948963;29;20086;-44
2023/03/18 07:53:42;;;;;;;14.07;8.82;;;10.50;99.90;;;;;;4939932;28;20058;-48
2023/03/18 07:56:11;;;;;;;16.40;8.57;;;10.50;99.90;;;;;;4942450;28;20055;-48
2023/03/18 07:58:37;;;;;;;17.73;9.82;;;10.60;99.90;;;;;;4945701;28;20556;-50
2023/03/18 08:01:04;;;;;;;20.33;9.45;;;10.60;99.90;;;;;;4942952;28;20106;-56
2023/03/18 08:03:29;;;;;;;16.13;8.70;;;10.70;99.90;;;;;;4941857;28;20059;-49
2023/03/18 08:05:56;;;;;;;15.25;9.25;;;10.70;99.90;;;;;;4943238;28;20063;-47
2023/03/18 08:08:23;;;;;;;14.65;8.25;;;10.70;99.90;;;;;;4941125;28;20081;-49
2023/03/18 08:10:50;;;;;;;15.02;9.23;;;10.80;99.90;;;;;;4944149;28;20066;-48
2023/03/18 08:13:16;;;;;;;11.52;7.60;;;10.80;99.90;;;;;;4946022;28;20191;-48
2023/03/18 08:15:42;;;;;;;13.93;7.90;;;10.90;99.90;;;;;;4946043;28;20138;-49
2023/03/18 08:18:08;;;;;;;14.23;9.60;;;11.00;99.90;;;;;;4949462;28;20062;-46
2023/03/18 08:20:34;;;;;;;17.13;10.48;;;11.10;99.90;;;;;;4948651;28;20074;-49
2023/03/18 08:23:00;;;;;;;18.20;11.65;;;11.10;99.90;;;;;;4947215;28;20572;-46
2023/03/18 08:25:25;;;;;;;15.57;8.82;;;11.20;99.90;;;;;;4948260;28;20081;-48
2023/03/18 08:27:52;;;;;;;18.30;10.15;;;11.30;99.90;;;;;;4946920;28;20401;-48
2023/03/18 08:30:18;;;;;;;16.55;9.95;;;11.30;99.90;;;;;;4949814;28;20062;-46
2023/03/18 08:32:44;;;;;;;15.05;9.10;;;11.40;99.90;;;;;;4943096;28;20165;-49
2023/03/18 08:35:11;;;;;;;15.60;9.60;;;11.40;99.90;;;;;;4949483;28;20421;-46
2023/03/18 08:37:38;;;;;;;20.25;10.93;;;11.50;99.90;;;;;;4943009;28;20047;-49
2023/03/18 08:40:05;;;;;;;17.50;9.50;;;11.50;99.90;;;;;;4951901;28;20049;-49
2023/03/18 08:42:31;;;;;;;17.83;11.02;;;11.60;99.90;;;;;;4949924;28;20138;-44
2023/03/18 08:44:56;;;;;;;19.30;10.88;;;11.70;99.90;;;;;;4943969;28;20084;-47
2023/03/18 08:47:24;;;;;;;16.40;9.68;;;11.80;99.90;;;;;;4946707;28;20475;-49
2023/03/18 08:49:50;;;;;;;19.55;11.02;;;11.90;99.90;;;;;;4945544;29;20051;-38
2023/03/18 08:52:16;;;;;;;16.70;10.50;;;12.10;99.90;;;;;;4946375;28;20051;-36
2023/03/18 08:54:42;;;;;;;16.95;10.35;;;12.20;99.90;;;;;;4951646;28;20497;-36
2023/03/18 08:57:08;;;;;;;21.15;11.45;;;12.30;99.90;;;;;;4952870;28;20059;-38
2023/03/18 08:59:35;;;;;;;18.30;10.43;;;12.40;99.90;;;;;;4949894;28;20138;-37
2023/03/18 09:02:02;;;;;;;15.45;10.25;;;12.50;99.90;;;;;;4951234;28;20416;-37
2023/03/18 09:04:28;;;;;;;17.77;10.55;;;12.50;99.90;;;;;;4951808;28;20503;-37
2023/03/18 09:06:53;;;;;;;15.35;9.82;;;12.50;99.90;;;;;;4945248;28;20047;-37
2023/03/18 09:09:19;;;;;;;16.80;10.80;;;12.50;99.90;;;;;;4950678;28;20102;-38
2023/03/18 09:11:45;;;;;;;16.60;10.10;;;12.50;99.90;;;;;;4949977;28;20465;-43
2023/03/18 09:14:12;;;;;;;16.88;11.43;;;12.50;99.90;;;;;;4949312;28;20055;-44
2023/03/18 09:16:38;;;;;;;19.35;11.30;;;12.60;99.90;;;;;;4946731;28;20054;-47
2023/03/18 09:19:03;;;;;;;16.30;10.52;;;12.70;99.90;;;;;;4952368;28;20564;-45
2023/03/18 09:21:30;;;;;;;18.80;10.68;;;12.80;99.90;;;;;;4947474;28;20079;-48
2023/03/18 09:23:56;;;;;;;14.85;10.57;;;12.90;99.90;;;;;;4946796;28;20425;-44
2023/03/18 09:26:22;;;;;;;15.07;10.15;;;13.00;99.90;;;;;;4949799;28;20334;-43
2023/03/18 09:28:48;;;;;;;14.80;9.02;;;13.10;99.90;;;;;;4946982;28;20117;-43
2023/03/18 09:31:14;;;;;;;11.75;6.90;;;13.20;99.90;;;;;;4943705;29;20051;-43
2023/03/18 09:33:41;;;;;;;11.07;6.72;;;13.30;99.90;;;;;;4946852;28;20051;-50
2023/03/18 09:36:08;;;;;;;15.93;7.57;;;13.30;99.90;;;;;;4945669;28;20409;-46
2023/03/18 09:38:34;;;;;;;13.85;8.13;;;13.30;99.90;;;;;;4946360;28;20051;-44
2023/03/18 09:41:11;;;;;;;10.90;7.35;;;13.20;99.90;;;;;;4950472;28;20058;-45
2023/03/18 09:43:51;;;;;;;10.63;7.10;;;13.00;99.90;;;;;;4940536;28;20062;-46
2023/03/18 09:46:56;;;;;;;10.93;8.50;;;13.00;99.90;;;;;;4944777;28;20094;-45
2023/03/18 09:49:31;;;;;;;11.60;7.88;;;13.20;99.90;;;;;;4946708;28;20051;-45
2023/03/18 09:52:22;;;;;;;16.75;9.40;;;13.30;99.90;;;;;;4947204;28;20059;-39
2023/03/18 09:55:13;;;;;;;11.68;8.93;;;13.50;99.90;;;;;;4948043;28;20055;-42
2023/03/18 09:57:42;;;;;;;13.13;7.30;;;13.80;99.90;;;;;;4910056;28;20532;-44
2023/03/18 10:00:12;;;;;;;12.60;8.07;;;13.90;99.90;;;;;;4949155;28;20500;-42
2023/03/18 10:02:46;;;;;;;11.32;7.20;;;13.90;99.90;;;;;;4950063;28;20059;-48
2023/03/18 10:05:51;;;;;;;11.27;7.35;;;14.00;99.90;;;;;;4948371;28;20413;-48
2023/03/18 10:08:42;;;;;;;10.80;6.72;;;14.00;99.90;;;;;;4948413;28;20134;-49
2023/03/18 10:11:20;;;;;;;13.18;7.47;;;14.00;99.90;;;;;;4948513;28;20588;-48
2023/03/18 10:14:21;;;;;;;10.57;6.75;;;14.10;99.90;;;;;;4949096;28;20065;-44
2023/03/18 10:16:57;;;;;;;11.95;7.82;;;14.20;99.90;;;;;;4947716;28;20497;-49
2023/03/18 10:19:23;;;;;;;11.10;6.03;;;14.20;99.90;;;;;;4946931;28;20063;-45
2023/03/18 10:21:56;;;;;;;9.52;6.30;;;14.30;99.90;;;;;;4942780;28;20074;-49
2023/03/18 10:24:31;;;;;;;11.23;6.40;;;14.30;99.90;;;;;;4949815;28;20106;-48
2023/03/18 10:27:29;;;;;;;10.65;6.57;;;14.50;99.90;;;;;;4957182;28;20107;-50
2023/03/18 10:30:34;;;;;;;11.27;6.88;;;14.70;99.90;;;;;;4948070;28;20558;-45
2023/03/18 10:33:12;;;;;;;11.18;6.90;;;15.00;99.90;;;;;;4948956;28;20055;-47
2023/03/18 10:36:03;;;;;;;9.63;6.15;;;15.20;99.90;;;;;;4948118;28;20067;-48
2023/03/18 10:38:36;;;;;;;11.63;6.85;;;15.30;99.90;;;;;;4944302;29;20472;-50
2023/03/18 10:41:31;;;;;;;13.48;7.07;;;15.30;99.90;;;;;;4947321;28;20118;-46
2023/03/18 10:44:00;;;;;;;10.40;7.20;;;15.10;99.90;;;;;;4940374;28;20485;-57
2023/03/18 10:46:27;;;;;;;9.15;5.75;;;15.00;99.90;;;;;;4945255;28;20051;-47
2023/03/18 10:49:00;;;;;;;11.50;6.20;;;15.00;99.90;;;;;;4947889;28;20051;-52
2023/03/18 10:51:53;;;;;;;10.95;6.47;;;14.90;99.90;;;;;;4949300;28;20063;-47
2023/03/18 10:54:31;;;;;;;7.30;4.60;;;15.00;99.90;;;;;;4949372;28;20159;-49
2023/03/18 10:56:57;;;;;;;8.35;4.78;;;15.10;99.70;;;;;;4942531;28;20066;-55
2023/03/18 10:59:25;;;;;;;9.23;4.13;;;15.30;99.90;;;;;;4949561;28;20054;-50
2023/03/18 11:02:13;;;;;;;4.32;2.45;;;15.50;99.50;;;;;;4948595;28;21345;-45
2023/03/18 11:04:54;;;;;;;4.57;2.25;;;15.60;98.20;;;;;;4949299;28;20062;-36
2023/03/18 11:07:27;;;;;;;5.07;2.70;;;15.70;96.90;;;;;;4948119;28;20059;-36
2023/03/18 11:09:53;;;;;;;7.18;3.50;;;15.80;97.10;;;;;;4948508;28;20051;-37
2023/03/18 11:12:27;;;;;;;7.15;3.88;;;15.80;96.30;;;;;;4948245;28;20110;-37
2023/03/18 11:14:53;;;;;;;7.30;4.10;;;15.80;96.40;;;;;;4948554;28;20058;-35
2023/03/18 11:17:21;;;;;;;7.07;4.75;;;15.90;96.80;;;;;;4942574;28;20059;-37
2023/03/18 11:20:26;;;;;;;7.18;4.47;;;15.90;96.70;;;;;;4942585;29;20073;-36
2023/03/18 11:22:54;;;;;;;8.23;5.18;;;15.90;96.80;;;;;;4940716;28;20098;-36
2023/03/18 11:25:24;;;;;;;10.27;5.43;;;16.00;96.30;;;;;;4946833;28;20054;-36
2023/03/18 11:28:05;;;;;;;8.45;5.30;;;16.00;96.60;;;;;;4940504;28;21359;-37
2023/03/18 11:30:54;;;;;;;9.57;6.32;;;16.10;96.20;;;;;;4942284;28;20556;-37
2023/03/18 11:33:24;;;;;;;9.05;5.80;;;16.20;96.10;;;;;;4941189;28;20465;-37
2023/03/18 11:36:04;;;;;;;8.75;5.75;;;16.30;96.50;;;;;;4942899;28;20055;-37
2023/03/18 11:38:33;;;;;;;8.00;5.28;;;16.40;96.80;;;;;;4945031;28;20144;-37
2023/03/18 11:41:22;;;;;;;9.55;5.80;;;16.50;95.80;;;;;;4944079;28;20055;-37
2023/03/18 11:44:05;;;;;;;9.35;6.05;;;16.60;95.50;;;;;;4947289;28;20421;-38
2023/03/18 11:46:46;;;;;;;11.85;5.65;;;16.60;94.20;;;;;;4945400;28;20504;-36
2023/03/18 11:49:15;;;;;;;8.88;5.28;;;16.60;94.60;;;;;;4944513;28;20146;-36
2023/03/18 11:51:56;;;;;;;9.48;6.38;;;16.50;94.20;;;;;;4942489;28;20461;-37
2023/03/18 11:54:44;;;;;;;7.95;5.07;;;16.50;94.40;;;;;;4944679;28;20047;-36
2023/03/18 11:57:26;;;;;;;8.63;4.75;;;16.50;93.50;;;;;;4943370;28;20051;-36
2023/03/18 12:00:16;;;;;;;9.35;5.57;;;16.60;94.20;;;;;;4942338;28;20047;-36
2023/03/18 12:02:56;;;;;;;8.05;4.63;;;16.70;94.30;;;;;;4948252;28;20126;-36
2023/03/18 12:06:12;;;;;;;8.13;5.20;;;16.70;92.50;;;;;;4936575;28;20056;-36
2023/03/18 12:09:07;;;;;;;10.25;5.45;;;16.60;92.10;;;;;;4928035;28;20141;-36
2023/03/18 12:11:45;;;;;;;9.07;5.93;;;16.60;92.50;;;;;;4908837;28;20048;-36
2023/03/18 12:14:19;;;;;;;8.73;5.50;;;16.70;93.10;;;;;;4941733;29;20063;-37
2023/03/18 12:17:14;;;;;;;9.30;5.80;;;16.80;92.80;;;;;;4943471;28;20055;-37
2023/03/18 12:20:05;;;;;;;9.23;5.78;;;16.90;92.30;;;;;;4952377;28;20420;-37
2023/03/18 12:22:50;;;;;;;7.57;5.20;;;16.90;92.70;;;;;;4952129;28;20568;-37
2023/03/18 12:25:57;;;;;;;9.02;5.70;;;17.00;92.80;;;;;;4952872;28;20061;-37
2023/03/18 12:28:41;;;;;;;11.60;6.40;;;17.00;92.10;;;;;;4937507;29;20552;-37
2023/03/18 12:31:40;;;;;;;9.55;6.10;;;17.00;92.40;;;;;;4949863;28;20126;-37
2023/03/18 12:34:45;;;;;;;10.20;6.50;;;16.90;92.10;;;;;;4944195;28;20142;-37
2023/03/18 12:37:20;;;;;;;10.35;6.32;;;16.90;91.90;;;;;;4900460;28;20059;-37
2023/03/18 12:40:20;;;;;;;9.55;5.78;;;17.00;92.30;;;;;;4944110;28;20058;-37
2023/03/18 12:43:08;;;;;;;8.57;5.50;;;17.10;92.20;;;;;;4948138;28;20054;-37
2023/03/18 12:45:41;;;;;;;7.30;5.03;;;17.50;91.40;;;;;;4946096;28;20571;-38
2023/03/18 12:48:13;;;;;;;7.72;4.80;;;17.80;90.60;;;;;;4946901;28;20047;-37
2023/03/18 12:50:46;;;;;;;7.50;5.05;;;18.00;89.30;;;;;;4948337;28;20520;-37
2023/03/18 12:53:23;;;;;;;8.32;5.47;;;18.10;89.90;;;;;;4950730;28;20138;-37
2023/03/18 12:56:00;;;;;;;8.55;5.60;;;18.00;90.40;;;;;;4950597;28;20058;-37
2023/03/18 12:58:42;;;;;;;8.55;5.03;;;18.00;90.30;;;;;;4949171;28;20051;-37